Time;durP1;ratioP1;P1;durP2;ratioP2;P2;SDS_P1;SDS_P2;PMS_P1;PMS_P2;Temp;Humidity;BMP_temperature;BMP_pressure;BME280_temperature;BME280_humidity;BME280_pressure;Samples;Min_cycle;Max_cycle;Signal;HPM_P1;HPM_P2
2021/03/17 00:01:06;;;;;;;2.50;2.25;;;4.90;93.60;;;;;;6255089;28;20073;-80
2021/03/17 00:04:08;;;;;;;2.40;2.20;;;5.00;93.80;;;;;;6255107;28;20088;-81
2021/03/17 00:07:10;;;;;;;3.72;3.00;;;4.90;93.90;;;;;;6255418;28;20056;-81
2021/03/17 00:10:13;;;;;;;3.38;2.95;;;4.80;94.20;;;;;;6255323;28;20068;-81
2021/03/17 00:13:15;;;;;;;4.38;2.90;;;4.80;94.50;;;;;;6255420;28;20513;-81
2021/03/17 00:16:17;;;;;;;3.88;3.17;;;4.80;94.90;;;;;;6255248;28;20084;-81
2021/03/17 00:19:18;;;;;;;3.38;3.05;;;4.80;95.00;;;;;;6254744;28;20100;-81
2021/03/17 00:22:20;;;;;;;2.75;2.28;;;4.80;95.00;;;;;;6254861;28;20128;-81
2021/03/17 00:25:22;;;;;;;3.70;3.33;;;4.70;95.40;;;;;;6255520;28;20498;-81
2021/03/17 00:28:23;;;;;;;4.30;3.75;;;4.70;95.60;;;;;;6256141;28;20502;-81
2021/03/17 00:31:26;;;;;;;3.83;3.47;;;4.70;95.80;;;;;;6254298;28;20076;-79
2021/03/17 00:34:27;;;;;;;4.57;3.58;;;4.70;95.90;;;;;;6255283;28;20076;-81
2021/03/17 00:37:28;;;;;;;5.07;3.03;;;4.70;96.00;;;;;;6254359;28;20073;-80
2021/03/17 00:40:30;;;;;;;4.20;2.47;;;4.70;95.90;;;;;;6254854;28;20111;-79
2021/03/17 00:43:31;;;;;;;3.53;2.75;;;4.80;96.00;;;;;;6255067;28;20101;-80
2021/03/17 00:46:33;;;;;;;3.03;2.60;;;4.80;96.10;;;;;;6255929;28;20117;-80
2021/03/17 00:49:34;;;;;;;2.90;2.53;;;4.70;96.00;;;;;;6255159;28;20069;-81
2021/03/17 00:52:36;;;;;;;4.53;3.63;;;4.80;96.30;;;;;;6256040;28;20041;-81
2021/03/17 00:55:37;;;;;;;3.10;2.80;;;4.80;96.20;;;;;;6254964;28;20076;-81
2021/03/17 00:58:39;;;;;;;4.40;3.75;;;4.80;96.20;;;;;;6255704;28;20128;-79
2021/03/17 01:01:41;;;;;;;2.67;2.30;;;4.80;96.20;;;;;;6256103;28;20064;-80
2021/03/17 01:04:42;;;;;;;3.33;2.92;;;4.70;96.20;;;;;;6255477;28;20401;-81
2021/03/17 01:07:44;;;;;;;4.15;3.05;;;4.70;96.30;;;;;;6254949;28;20042;-81
2021/03/17 01:10:47;;;;;;;3.38;2.58;;;4.70;96.60;;;;;;6258792;28;20049;-81
2021/03/17 01:13:49;;;;;;;4.03;3.30;;;4.80;96.50;;;;;;6260389;28;20045;-81
2021/03/17 01:16:51;;;;;;;10.10;3.63;;;4.70;96.50;;;;;;6253603;28;20136;-81
2021/03/17 01:19:52;;;;;;;3.25;2.95;;;4.70;96.60;;;;;;6252855;28;20049;-80
2021/03/17 01:22:54;;;;;;;2.80;2.30;;;4.80;96.60;;;;;;6253692;28;20519;-81
2021/03/17 01:25:56;;;;;;;3.05;2.70;;;4.70;96.70;;;;;;6254112;28;20037;-80
2021/03/17 01:28:57;;;;;;;3.72;3.17;;;4.70;96.70;;;;;;6271384;28;20037;-82
2021/03/17 01:31:59;;;;;;;5.20;4.80;;;4.70;96.60;;;;;;6279727;28;20056;-81
2021/03/17 01:35:01;;;;;;;6.00;3.58;;;4.80;96.80;;;;;;6279292;28;20033;-82
2021/03/17 01:38:03;;;;;;;4.47;3.83;;;4.80;96.80;;;;;;6278712;28;20029;-82
2021/03/17 01:41:04;;;;;;;4.72;4.28;;;4.80;97.00;;;;;;6289675;28;20040;-82
2021/03/17 01:44:06;;;;;;;6.07;3.72;;;4.80;96.90;;;;;;6303704;28;20033;-80
2021/03/17 01:47:08;;;;;;;4.07;3.58;;;4.80;97.00;;;;;;6303098;28;20045;-82
2021/03/17 01:50:12;;;;;;;4.78;3.72;;;4.70;97.20;;;;;;6302641;28;20059;-82
2021/03/17 01:53:17;;;;;;;4.85;4.13;;;4.70;97.30;;;;;;6297296;28;20084;-79
2021/03/17 01:56:19;;;;;;;4.80;4.00;;;4.70;97.60;;;;;;6279143;28;20080;-78
2021/03/17 01:59:21;;;;;;;4.43;3.65;;;4.70;97.60;;;;;;6278308;28;20068;-78
2021/03/17 02:02:23;;;;;;;3.90;3.50;;;4.70;97.80;;;;;;6278873;28;20049;-78
2021/03/17 02:05:27;;;;;;;4.95;3.65;;;4.70;97.80;;;;;;6299319;28;20036;-79
2021/03/17 02:08:32;;;;;;;4.25;3.85;;;4.60;97.90;;;;;;6302913;28;20037;-79
2021/03/17 02:11:39;;;;;;;4.55;3.47;;;4.60;97.70;;;;;;6302188;28;20064;-78
2021/03/17 02:14:51;;;;;;;5.07;4.05;;;4.60;97.70;;;;;;6288917;28;20045;-77
2021/03/17 02:17:59;;;;;;;4.45;4.03;;;4.60;97.80;;;;;;6274942;28;20041;-78
2021/03/17 02:21:32;;;;;;;4.88;4.38;;;4.60;98.00;;;;;;6274299;28;20589;-78
2021/03/17 02:24:39;;;;;;;5.20;4.28;;;4.60;97.90;;;;;;6278670;28;20049;-80
2021/03/17 02:28:08;;;;;;;6.05;3.90;;;4.60;98.00;;;;;;6278919;28;20055;-80
2021/03/17 02:31:54;;;;;;;4.93;3.80;;;4.60;97.90;;;;;;6275061;28;20071;-79
2021/03/17 02:35:01;;;;;;;5.90;3.92;;;4.70;98.00;;;;;;6252737;28;20045;-77
2021/03/17 02:38:06;;;;;;;4.03;3.57;;;4.60;97.90;;;;;;6281554;28;20041;-80
2021/03/17 02:41:08;;;;;;;4.57;4.13;;;4.60;98.00;;;;;;6281060;28;20108;-79
2021/03/17 02:44:17;;;;;;;6.10;4.13;;;4.60;97.90;;;;;;6281195;28;20068;-80
2021/03/17 02:47:19;;;;;;;3.58;3.28;;;4.70;98.00;;;;;;6281810;28;20041;-79
2021/03/17 02:50:22;;;;;;;4.30;3.90;;;4.60;98.10;;;;;;6280891;28;20045;-80
2021/03/17 02:53:26;;;;;;;4.72;4.18;;;4.70;98.00;;;;;;6278431;28;20064;-77
2021/03/17 02:56:30;;;;;;;4.70;3.22;;;4.70;97.90;;;;;;6280179;28;20135;-80
2021/03/17 02:59:33;;;;;;;3.72;3.10;;;4.70;97.80;;;;;;6280032;28;20499;-81
2021/03/17 03:02:35;;;;;;;6.88;3.83;;;4.70;97.80;;;;;;6280801;28;20045;-80
2021/03/17 03:05:38;;;;;;;3.85;3.40;;;4.60;98.00;;;;;;6279870;28;20041;-80
2021/03/17 03:08:41;;;;;;;3.95;3.53;;;4.60;98.10;;;;;;6279665;28;20527;-82
2021/03/17 03:11:44;;;;;;;3.92;3.33;;;4.70;98.20;;;;;;6278690;28;20041;-83
2021/03/17 03:14:45;;;;;;;3.67;3.17;;;4.70;98.10;;;;;;6278770;28;20080;-81
2021/03/17 03:17:48;;;;;;;4.82;4.30;;;4.80;98.10;;;;;;6279384;28;20064;-80
2021/03/17 03:20:52;;;;;;;4.72;3.50;;;4.70;98.00;;;;;;6278985;28;20135;-79
2021/03/17 03:23:55;;;;;;;4.20;3.70;;;4.70;98.00;;;;;;6279192;28;20127;-79
2021/03/17 03:26:59;;;;;;;6.13;3.92;;;4.70;98.10;;;;;;6279771;28;20072;-80
2021/03/17 03:30:05;;;;;;;5.03;4.10;;;4.70;98.00;;;;;;6279739;28;20128;-81
2021/03/17 03:33:07;;;;;;;5.70;4.38;;;4.70;98.00;;;;;;6279326;28;20529;-79
2021/03/17 03:36:09;;;;;;;5.47;4.50;;;4.60;98.00;;;;;;6278866;28;20077;-81
2021/03/17 03:39:11;;;;;;;4.15;3.53;;;4.60;98.10;;;;;;6278598;28;20123;-79
2021/03/17 03:42:12;;;;;;;4.32;3.92;;;4.60;98.10;;;;;;6279091;28;20123;-80
2021/03/17 03:45:16;;;;;;;4.60;3.85;;;4.60;98.10;;;;;;6280061;28;20144;-80
2021/03/17 03:48:18;;;;;;;5.03;4.03;;;4.60;98.20;;;;;;6280732;28;20049;-80
2021/03/17 03:51:21;;;;;;;3.83;3.45;;;4.60;98.20;;;;;;6280648;28;20065;-81
2021/03/17 03:54:28;;;;;;;5.13;4.25;;;4.60;98.20;;;;;;6280913;28;20107;-81
2021/03/17 03:57:36;;;;;;;5.55;4.03;;;4.70;98.20;;;;;;6281145;28;20128;-79
2021/03/17 04:00:41;;;;;;;10.43;4.55;;;4.60;98.10;;;;;;6281504;28;20061;-80
2021/03/17 04:03:46;;;;;;;4.72;4.22;;;4.60;98.10;;;;;;6282655;28;20071;-81
2021/03/17 04:06:51;;;;;;;5.30;4.10;;;4.60;98.10;;;;;;6284371;28;20076;-81
2021/03/17 04:09:55;;;;;;;5.85;3.85;;;4.60;98.10;;;;;;6280011;28;20473;-81
2021/03/17 04:12:58;;;;;;;3.97;3.58;;;4.60;98.10;;;;;;6280709;28;20257;-80
2021/03/17 04:16:01;;;;;;;5.90;4.30;;;4.60;98.20;;;;;;6279204;28;20055;-81
2021/03/17 04:19:03;;;;;;;3.60;2.97;;;4.60;98.10;;;;;;6279450;28;20132;-81
2021/03/17 04:22:06;;;;;;;5.80;3.75;;;4.60;98.10;;;;;;6280209;28;20053;-80
2021/03/17 04:25:09;;;;;;;4.60;3.67;;;4.60;98.10;;;;;;6281378;28;20144;-80
2021/03/17 04:28:14;;;;;;;4.75;3.63;;;4.60;98.10;;;;;;6280552;28;20057;-80
2021/03/17 04:31:17;;;;;;;3.13;2.83;;;4.60;98.10;;;;;;6279468;28;20131;-80
2021/03/17 04:34:19;;;;;;;3.58;3.28;;;4.70;98.00;;;;;;6279274;28;20056;-81
2021/03/17 04:37:22;;;;;;;3.85;3.45;;;4.70;97.90;;;;;;6281959;28;20049;-80
2021/03/17 04:40:24;;;;;;;3.97;3.60;;;4.70;98.00;;;;;;6281270;28;20049;-81
2021/03/17 04:43:26;;;;;;;4.10;3.08;;;4.70;97.70;;;;;;6280848;28;20037;-81
2021/03/17 04:46:27;;;;;;;4.38;3.30;;;4.70;97.60;;;;;;6279884;28;20053;-80
2021/03/17 04:49:30;;;;;;;4.43;3.50;;;4.80;97.60;;;;;;6280312;28;20045;-80
2021/03/17 04:52:35;;;;;;;4.30;2.88;;;4.80;97.60;;;;;;6279938;28;20418;-80
2021/03/17 04:55:37;;;;;;;3.45;3.15;;;4.80;97.60;;;;;;6282469;28;20080;-80
2021/03/17 04:58:39;;;;;;;3.70;3.35;;;4.80;97.80;;;;;;6285222;28;20128;-80
2021/03/17 05:01:42;;;;;;;3.95;3.30;;;4.80;97.50;;;;;;6284481;28;20060;-80
2021/03/17 05:04:45;;;;;;;7.18;4.40;;;4.80;97.50;;;;;;6284935;28;20132;-79
2021/03/17 05:07:49;;;;;;;4.28;3.85;;;4.80;97.50;;;;;;6287025;28;20060;-81
2021/03/17 05:10:51;;;;;;;5.18;4.07;;;4.80;97.50;;;;;;6288566;28;20415;-80
2021/03/17 05:13:52;;;;;;;4.88;3.85;;;4.90;97.50;;;;;;6288517;28;20094;-81
2021/03/17 05:16:54;;;;;;;4.05;3.65;;;4.90;97.40;;;;;;6290396;28;20088;-81
2021/03/17 05:19:56;;;;;;;4.97;4.55;;;4.90;97.20;;;;;;6286976;28;20068;-79
2021/03/17 05:22:59;;;;;;;4.43;3.95;;;4.90;97.10;;;;;;6282401;28;20073;-81
2021/03/17 05:26:02;;;;;;;5.43;4.55;;;5.00;97.20;;;;;;6290618;28;20047;-82
2021/03/17 05:29:03;;;;;;;5.47;4.38;;;5.00;97.20;;;;;;6292692;28;20056;-81
2021/03/17 05:32:08;;;;;;;5.68;4.82;;;5.00;97.20;;;;;;6281883;28;20045;-81
2021/03/17 05:35:10;;;;;;;7.60;5.60;;;5.00;97.20;;;;;;6283772;28;20053;-82
2021/03/17 05:38:13;;;;;;;8.98;7.35;;;5.00;97.30;;;;;;6284832;28;20049;-81
2021/03/17 05:41:15;;;;;;;8.63;7.50;;;4.90;97.20;;;;;;6283150;28;20048;-81
2021/03/17 05:44:17;;;;;;;6.43;5.60;;;4.90;97.50;;;;;;6284121;28;20077;-81
2021/03/17 05:47:20;;;;;;;5.65;4.82;;;4.90;97.60;;;;;;6283970;28;20069;-81
2021/03/17 05:50:23;;;;;;;8.43;6.53;;;4.90;97.90;;;;;;6285021;28;20316;-82
2021/03/17 05:53:26;;;;;;;8.52;7.38;;;4.90;98.10;;;;;;6284178;28;20113;-81
2021/03/17 05:56:30;;;;;;;7.88;6.95;;;4.90;98.40;;;;;;6285966;28;20518;-80
2021/03/17 05:59:31;;;;;;;7.40;6.38;;;4.90;98.60;;;;;;6287349;28;20049;-80
2021/03/17 06:02:34;;;;;;;7.57;6.78;;;4.90;98.70;;;;;;6288909;28;20414;-80
2021/03/17 06:05:36;;;;;;;8.30;7.40;;;4.90;98.90;;;;;;6288275;28;20485;-82
2021/03/17 06:08:44;;;;;;;8.52;7.28;;;4.90;99.20;;;;;;6289821;28;20049;-81
2021/03/17 06:11:45;;;;;;;;;;;4.90;99.60;;;;;;6289825;28;20071;-81
2021/03/17 06:14:49;;;;;;;12.07;8.75;;;4.90;99.80;;;;;;6290970;28;19952;-81
2021/03/17 06:17:57;;;;;;;10.43;9.10;;;5.00;99.90;;;;;;6294384;28;20068;-82
2021/03/17 06:21:00;;;;;;;13.40;8.82;;;5.00;99.90;;;;;;6290334;28;20130;-81
2021/03/17 06:24:02;;;;;;;14.40;9.85;;;5.00;99.90;;;;;;6289429;28;20091;-80
2021/03/17 06:27:04;;;;;;;10.13;8.60;;;5.00;99.90;;;;;;6290445;28;20064;-81
2021/03/17 06:30:07;;;;;;;11.23;9.95;;;5.10;99.90;;;;;;6288903;28;20036;-81
2021/03/17 06:33:08;;;;;;;13.27;9.40;;;5.10;99.90;;;;;;6289824;28;20495;-81
2021/03/17 06:36:17;;;;;;;14.65;10.55;;;5.20;99.90;;;;;;6291512;28;20052;-81
2021/03/17 06:39:20;;;;;;;12.20;9.13;;;5.20;99.90;;;;;;6288656;28;20083;-81
2021/03/17 06:42:38;;;;;;;11.85;10.02;;;5.20;99.90;;;;;;6289884;28;20061;-82
2021/03/17 06:45:43;;;;;;;12.77;9.18;;;5.10;99.90;;;;;;6290883;28;20076;-81
2021/03/17 06:48:45;;;;;;;11.60;10.40;;;5.10;99.90;;;;;;6292060;28;20071;-81
2021/03/17 06:51:46;;;;;;;13.18;10.30;;;5.10;99.90;;;;;;6289154;28;20075;-81
2021/03/17 06:58:38;;;;;;;13.60;10.55;;;5.20;99.90;;;;;;6346731;27;20447;-80
2021/03/17 07:01:40;;;;;;;16.95;11.50;;;5.10;99.90;;;;;;6325887;28;20041;-80
2021/03/17 07:04:53;;;;;;;14.13;10.63;;;5.10;99.90;;;;;;6295348;28;20053;-80
2021/03/17 07:07:54;;;;;;;13.23;10.82;;;5.10;99.90;;;;;;6304811;28;20048;-82
2021/03/17 07:10:57;;;;;;;17.60;12.65;;;5.10;99.90;;;;;;6306432;28;20068;-80
2021/03/17 07:14:04;;;;;;;16.45;12.52;;;5.20;99.90;;;;;;6307474;28;20049;-81
2021/03/17 07:17:25;;;;;;;19.63;13.85;;;5.10;99.90;;;;;;6306616;28;20379;-80
2021/03/17 07:20:45;;;;;;;19.60;11.55;;;5.10;99.90;;;;;;6306233;28;20045;-81
2021/03/17 07:23:47;;;;;;;17.25;12.10;;;5.10;99.90;;;;;;6302724;28;20126;-80
2021/03/17 07:26:48;;;;;;;19.35;13.02;;;5.00;99.90;;;;;;6302340;28;20037;-81
2021/03/17 07:30:09;;;;;;;22.13;14.40;;;5.00;99.90;;;;;;6305440;28;20045;-80
2021/03/17 07:33:11;;;;;;;24.88;15.75;;;5.00;99.90;;;;;;6302208;28;20072;-81
2021/03/17 07:36:28;;;;;;;22.65;16.08;;;5.00;99.90;;;;;;6313127;28;20056;-80
2021/03/17 07:39:31;;;;;;;30.23;17.83;;;5.00;99.90;;;;;;6304898;28;20119;-81
2021/03/17 07:42:33;;;;;;;28.83;18.15;;;5.00;99.90;;;;;;6304163;28;20593;-82
2021/03/17 07:45:35;;;;;;;28.38;16.63;;;5.10;99.90;;;;;;6301582;28;20071;-81
2021/03/17 07:48:37;;;;;;;33.63;17.98;;;5.00;99.90;;;;;;6300848;28;20084;-81
2021/03/17 07:51:45;;;;;;;30.50;16.98;;;5.00;99.90;;;;;;6300890;28;20118;-81
2021/03/17 07:54:51;;;;;;;33.42;17.80;;;4.90;99.90;;;;;;6301505;28;20045;-81
2021/03/17 07:57:52;;;;;;;37.40;17.88;;;4.90;99.90;;;;;;6301642;28;20414;-81
2021/03/17 08:00:56;;;;;;;33.92;18.33;;;4.90;99.90;;;;;;6303985;28;20130;-80
2021/03/17 08:03:58;;;;;;;31.90;19.15;;;4.90;99.90;;;;;;6301202;28;20049;-79
2021/03/17 08:07:00;;;;;;;36.28;18.38;;;5.00;99.90;;;;;;6298605;28;20071;-80
2021/03/17 08:10:03;;;;;;;31.48;18.45;;;5.10;99.90;;;;;;6281242;28;20083;-81
2021/03/17 08:13:05;;;;;;;32.58;17.30;;;5.30;99.90;;;;;;6283707;28;20069;-79
2021/03/17 08:16:08;;;;;;;34.53;18.08;;;5.50;99.90;;;;;;6284499;28;20049;-81
2021/03/17 08:19:23;;;;;;;30.15;17.40;;;5.60;99.90;;;;;;6283223;28;20051;-81
2021/03/17 08:22:36;;;;;;;30.27;16.65;;;5.80;99.90;;;;;;6267322;28;20053;-78
2021/03/17 08:25:41;;;;;;;26.33;18.00;;;5.80;99.90;;;;;;6261574;28;20054;-81
2021/03/17 08:28:51;;;;;;;29.60;17.67;;;5.80;99.90;;;;;;6258091;28;20566;-83
2021/03/17 08:31:56;;;;;;;18.52;13.38;;;6.00;99.90;;;;;;6256880;28;20049;-83
2021/03/17 08:34:58;;;;;;;20.88;12.73;;;6.50;99.90;;;;;;6258789;28;20048;-82
2021/03/17 08:38:00;;;;;;;23.65;15.07;;;6.70;99.90;;;;;;6257389;28;20056;-83
2021/03/17 08:41:02;;;;;;;21.48;13.20;;;7.10;99.90;;;;;;6256769;28;20487;-82
2021/03/17 08:44:11;;;;;;;17.65;11.60;;;7.80;99.90;;;;;;6262436;28;20419;-80
2021/03/17 08:47:16;;;;;;;18.20;12.77;;;8.60;99.00;;;;;;6265595;28;20072;-80
2021/03/17 08:50:20;;;;;;;17.40;13.13;;;9.00;95.70;;;;;;6256487;28;20566;-83
2021/03/17 08:53:39;;;;;;;17.60;12.02;;;9.00;94.10;;;;;;6260240;28;20057;-83
2021/03/17 08:56:49;;;;;;;19.05;15.07;;;9.00;93.30;;;;;;6256531;28;20047;-81
2021/03/17 08:59:52;;;;;;;16.08;11.30;;;9.00;92.40;;;;;;6256179;28;20073;-81
2021/03/17 09:02:54;;;;;;;20.98;11.60;;;9.10;91.60;;;;;;6256721;28;20046;-81
2021/03/17 09:06:10;;;;;;;16.67;11.07;;;8.90;90.80;;;;;;6255770;28;20476;-81
2021/03/17 09:09:17;;;;;;;14.60;10.82;;;8.80;90.60;;;;;;6255594;28;20056;-80
2021/03/17 09:12:20;;;;;;;15.43;12.05;;;8.60;90.90;;;;;;6257949;28;20211;-80
2021/03/17 09:15:24;;;;;;;13.00;10.00;;;8.70;91.40;;;;;;6257059;28;20128;-81
2021/03/17 09:18:26;;;;;;;15.45;10.20;;;8.90;90.10;;;;;;6257707;28;20045;-80
2021/03/17 09:21:29;;;;;;;15.10;11.30;;;9.10;88.70;;;;;;6264164;28;20052;-80
2021/03/17 09:24:32;;;;;;;14.93;11.55;;;9.30;87.00;;;;;;6278229;28;20045;-80
2021/03/17 09:27:43;;;;;;;16.90;10.68;;;9.50;86.20;;;;;;6280889;28;20502;-79
2021/03/17 09:30:49;;;;;;;15.57;10.57;;;9.50;84.40;;;;;;6291492;28;20060;-79
2021/03/17 09:33:51;;;;;;;17.10;11.32;;;9.40;83.90;;;;;;6296357;28;20049;-80
2021/03/17 09:37:00;;;;;;;14.30;10.40;;;9.30;85.30;;;;;;6295090;28;20044;-78
2021/03/17 09:40:02;;;;;;;13.50;10.00;;;9.20;83.60;;;;;;6293440;28;20041;-81
2021/03/17 09:43:03;;;;;;;17.92;10.05;;;9.20;83.20;;;;;;6290842;28;20110;-81
2021/03/17 09:46:25;;;;;;;14.00;9.70;;;9.10;81.90;;;;;;6292039;28;20101;-80
2021/03/17 09:49:27;;;;;;;13.27;8.75;;;9.00;82.00;;;;;;6292389;28;20100;-81
2021/03/17 09:52:29;;;;;;;13.80;9.00;;;9.00;80.80;;;;;;6294918;28;20529;-81
2021/03/17 09:55:32;;;;;;;13.43;9.35;;;9.10;81.10;;;;;;6292185;28;20048;-81
2021/03/17 09:58:34;;;;;;;14.38;9.75;;;9.30;80.10;;;;;;6294152;28;20087;-81
2021/03/17 10:01:47;;;;;;;15.27;9.30;;;9.40;78.50;;;;;;6294084;28;20053;-80
2021/03/17 10:04:52;;;;;;;17.15;9.85;;;9.50;78.30;;;;;;6293381;28;20048;-80
2021/03/17 10:07:53;;;;;;;10.48;7.70;;;9.50;78.30;;;;;;6290514;28;20113;-81
2021/03/17 10:10:54;;;;;;;13.18;8.90;;;9.60;77.90;;;;;;6290048;28;20109;-81
2021/03/17 10:13:56;;;;;;;13.73;7.90;;;9.70;76.90;;;;;;6290779;28;20044;-79
2021/03/17 10:17:00;;;;;;;10.93;8.07;;;9.90;77.10;;;;;;6291498;28;20045;-79
2021/03/17 10:20:08;;;;;;;12.38;8.05;;;10.30;75.80;;;;;;6287334;28;20087;-78
2021/03/17 10:23:09;;;;;;;;;;;10.50;75.00;;;;;;6278169;28;20045;-78
2021/03/17 10:26:11;;;;;;;7.13;6.25;;;10.70;75.00;;;;;;6252820;28;19956;-79
2021/03/17 10:29:12;;;;;;;10.80;5.95;;;10.90;72.10;;;;;;6250172;28;20139;-78
2021/03/17 10:32:15;;;;;;;10.45;6.95;;;11.40;68.90;;;;;;6251020;28;20053;-78
2021/03/17 10:35:18;;;;;;;6.20;4.93;;;11.80;67.50;;;;;;6252629;28;20564;-79
2021/03/17 10:38:19;;;;;;;6.80;5.40;;;11.80;66.20;;;;;;6253021;28;20152;-79
2021/03/17 10:41:40;;;;;;;11.82;6.28;;;11.50;65.50;;;;;;6251731;28;20127;-80
2021/03/17 10:44:42;;;;;;;8.70;6.30;;;11.30;66.20;;;;;;6252560;28;20053;-79
2021/03/17 10:47:46;;;;;;;10.35;6.50;;;10.90;66.30;;;;;;6253001;28;20503;-81
2021/03/17 10:50:48;;;;;;;8.52;5.43;;;10.80;67.70;;;;;;6253754;28;20050;-81
2021/03/17 10:53:50;;;;;;;8.88;7.85;;;10.70;69.00;;;;;;6253921;28;20108;-80
2021/03/17 10:56:51;;;;;;;10.98;6.32;;;10.60;69.70;;;;;;6254800;28;20046;-81
2021/03/17 10:59:52;;;;;;;9.70;7.55;;;10.50;70.10;;;;;;6254040;28;20546;-79
2021/03/17 11:02:55;;;;;;;9.18;6.28;;;10.20;71.00;;;;;;6253906;28;20065;-82
2021/03/17 11:06:12;;;;;;;7.82;5.63;;;10.10;71.20;;;;;;6255748;28;20065;-80
2021/03/17 11:09:15;;;;;;;8.75;5.75;;;10.20;70.30;;;;;;6267371;28;20053;-79
2021/03/17 11:12:16;;;;;;;7.22;4.93;;;10.30;70.30;;;;;;6266275;28;20072;-79
2021/03/17 11:15:26;;;;;;;8.45;5.57;;;10.40;69.40;;;;;;6265037;28;20049;-79
2021/03/17 11:18:28;;;;;;;7.75;5.72;;;10.30;68.70;;;;;;6267454;28;20049;-79
2021/03/17 11:21:32;;;;;;;7.40;4.78;;;10.20;68.90;;;;;;6262399;28;20069;-79
2021/03/17 11:24:34;;;;;;;6.82;4.72;;;10.10;69.60;;;;;;6270009;28;20565;-81
2021/03/17 11:27:35;;;;;;;6.30;5.15;;;10.20;69.80;;;;;;6280216;28;20061;-81
2021/03/17 11:30:44;;;;;;;8.90;5.82;;;10.20;70.10;;;;;;6279488;28;20514;-79
2021/03/17 11:33:45;;;;;;;6.97;5.53;;;10.00;71.20;;;;;;6283720;28;20056;-80
2021/03/17 11:36:49;;;;;;;9.18;7.10;;;9.60;73.10;;;;;;6282258;28;20073;-79
2021/03/17 11:39:50;;;;;;;11.48;6.93;;;9.20;75.50;;;;;;6280809;28;20514;-81
2021/03/17 11:42:51;;;;;;;6.18;4.82;;;8.70;77.80;;;;;;6281512;28;20056;-80
2021/03/17 11:45:54;;;;;;;7.00;5.32;;;8.40;79.80;;;;;;6285978;28;20045;-80
2021/03/17 11:48:56;;;;;;;6.15;4.97;;;8.00;82.60;;;;;;6286576;28;20060;-82
2021/03/17 11:51:58;;;;;;;9.10;5.82;;;7.50;86.40;;;;;;6287991;28;20102;-80
2021/03/17 11:54:59;;;;;;;8.35;6.90;;;7.10;90.30;;;;;;6289137;28;20040;-80
2021/03/17 11:58:02;;;;;;;7.85;6.20;;;6.90;91.50;;;;;;6287275;28;20052;-81
2021/03/17 12:01:05;;;;;;;11.02;8.90;;;6.70;92.80;;;;;;6283521;28;20112;-81
2021/03/17 12:04:06;;;;;;;12.40;6.47;;;6.50;94.00;;;;;;6284072;28;20053;-80
2021/03/17 12:07:08;;;;;;;8.48;5.78;;;6.50;95.70;;;;;;6283357;28;20045;-81
2021/03/17 12:10:11;;;;;;;8.95;5.78;;;6.40;97.60;;;;;;6285303;28;20065;-81
2021/03/17 12:13:13;;;;;;;6.35;5.03;;;6.40;99.30;;;;;;6283679;28;20476;-84
2021/03/17 12:16:15;;;;;;;7.25;6.53;;;6.50;99.50;;;;;;6290598;28;20071;-83
2021/03/17 12:19:16;;;;;;;8.82;5.60;;;6.60;99.90;;;;;;6287896;28;20044;-82
2021/03/17 12:22:18;;;;;;;11.55;6.00;;;6.80;99.90;;;;;;6288622;28;20449;-83
2021/03/17 12:25:20;;;;;;;7.80;4.75;;;7.50;99.90;;;;;;6285398;28;20069;-81
2021/03/17 12:28:22;;;;;;;6.82;4.28;;;7.80;99.90;;;;;;6287232;28;20072;-82
2021/03/17 12:31:24;;;;;;;5.30;4.28;;;8.10;99.90;;;;;;6283865;28;20129;-82
2021/03/17 12:34:28;;;;;;;5.35;4.25;;;8.50;99.90;;;;;;6286553;28;20140;-80
2021/03/17 12:37:30;;;;;;;5.82;5.30;;;8.90;99.90;;;;;;6286326;28;20053;-82
2021/03/17 12:40:32;;;;;;;4.03;3.45;;;9.20;99.90;;;;;;6283211;28;20068;-82
2021/03/17 12:43:34;;;;;;;4.03;3.17;;;9.50;99.40;;;;;;6280370;28;20053;-80
2021/03/17 12:46:35;;;;;;;5.13;3.80;;;9.50;99.30;;;;;;6280276;28;20052;-81
2021/03/17 12:49:38;;;;;;;5.47;3.70;;;9.80;99.40;;;;;;6281060;28;20578;-81
2021/03/17 12:52:40;;;;;;;4.25;3.40;;;10.00;96.80;;;;;;6280511;28;20048;-81
2021/03/17 12:55:41;;;;;;;5.18;4.65;;;10.10;95.70;;;;;;6281269;28;20045;-80
2021/03/17 12:58:43;;;;;;;5.72;4.63;;;10.30;96.40;;;;;;6282754;28;20463;-82
2021/03/17 13:01:44;;;;;;;4.43;3.63;;;10.70;95.30;;;;;;6280806;28;20048;-81
2021/03/17 13:04:45;;;;;;;3.05;2.58;;;10.80;91.80;;;;;;6280746;28;20064;-81
2021/03/17 13:07:48;;;;;;;4.68;3.83;;;10.70;89.70;;;;;;6281827;28;20506;-82
2021/03/17 13:10:49;;;;;;;5.60;4.30;;;10.40;90.10;;;;;;6282357;28;20072;-81
2021/03/17 13:13:51;;;;;;;6.15;4.03;;;10.10;90.10;;;;;;6282969;28;20068;-81
2021/03/17 13:16:53;;;;;;;4.32;3.25;;;10.20;90.30;;;;;;6282136;28;20044;-83
2021/03/17 13:19:54;;;;;;;3.50;2.65;;;10.10;87.60;;;;;;6284127;28;20049;-82
2021/03/17 13:22:56;;;;;;;2.50;2.25;;;9.90;84.80;;;;;;6284527;28;20118;-81
2021/03/17 13:25:58;;;;;;;3.67;3.35;;;9.40;85.10;;;;;;6276874;28;20052;-82
2021/03/17 13:28:59;;;;;;;12.60;4.40;;;8.90;87.00;;;;;;6281693;28;20077;-81
2021/03/17 13:32:00;;;;;;;3.70;2.85;;;8.80;88.70;;;;;;6282435;28;20413;-82
2021/03/17 13:35:02;;;;;;;4.78;3.38;;;9.00;90.40;;;;;;6282847;28;20045;-80
2021/03/17 13:38:06;;;;;;;5.88;3.65;;;9.10;88.80;;;;;;6282746;28;20555;-81
2021/03/17 13:41:08;;;;;;;8.30;4.10;;;9.30;89.90;;;;;;6283742;28;20052;-80
2021/03/17 13:44:09;;;;;;;7.20;5.07;;;9.60;88.70;;;;;;6280930;28;20072;-82
2021/03/17 13:47:11;;;;;;;6.93;6.05;;;9.90;85.70;;;;;;6282746;28;20040;-81
2021/03/17 13:50:14;;;;;;;8.30;3.25;;;10.00;85.40;;;;;;6287127;28;20064;-81
2021/03/17 13:53:17;;;;;;;2.75;2.20;;;9.80;86.30;;;;;;6281801;28;20044;-78
2021/03/17 13:56:20;;;;;;;4.13;2.58;;;9.00;85.50;;;;;;6286713;28;20087;-85
2021/03/17 13:59:21;;;;;;;15.98;11.35;;;7.40;81.40;;;;;;6286246;28;20080;-83
2021/03/17 14:02:22;;;;;;;3.58;3.05;;;6.10;88.60;;;;;;6283211;28;20123;-82
2021/03/17 14:05:28;;;;;;;3.65;3.15;;;5.70;94.30;;;;;;6282244;28;20056;-83
2021/03/17 14:08:30;;;;;;;4.45;3.03;;;5.60;99.90;;;;;;6285204;28;20075;-82
2021/03/17 14:11:32;;;;;;;3.88;2.70;;;6.00;99.90;;;;;;6285879;28;20045;-82
2021/03/17 14:14:34;;;;;;;6.35;3.90;;;6.40;99.90;;;;;;6287724;28;20049;-84
2021/03/17 14:17:36;;;;;;;4.32;3.17;;;6.70;99.90;;;;;;6286772;28;20095;-81
2021/03/17 14:20:37;;;;;;;2.40;1.85;;;7.00;99.90;;;;;;6286674;28;20091;-83
2021/03/17 14:23:39;;;;;;;2.65;2.30;;;7.30;99.90;;;;;;6295191;28;20051;-82
2021/03/17 14:26:41;;;;;;;2.47;2.17;;;7.40;99.90;;;;;;6285620;28;20065;-82
2021/03/17 14:29:43;;;;;;;1.40;1.30;;;7.50;99.90;;;;;;6258907;28;20129;-84
2021/03/17 14:32:44;;;;;;;2.00;1.65;;;7.60;99.90;;;;;;6257456;28;20053;-83
2021/03/17 14:35:46;;;;;;;2.42;2.05;;;7.60;99.90;;;;;;6258370;28;20053;-82
2021/03/17 14:38:49;;;;;;;2.55;1.95;;;7.60;99.90;;;;;;6258461;28;20045;-83
2021/03/17 14:41:51;;;;;;;2.00;1.80;;;7.60;99.90;;;;;;6258126;28;20045;-85
2021/03/17 14:44:52;;;;;;;2.55;2.20;;;7.50;98.90;;;;;;6257870;28;20042;-82
2021/03/17 14:47:53;;;;;;;3.72;3.42;;;7.50;97.60;;;;;;6256936;28;20061;-84
2021/03/17 14:50:55;;;;;;;2.08;1.70;;;7.50;97.80;;;;;;6257922;28;20065;-84
2021/03/17 14:53:57;;;;;;;2.50;2.10;;;7.40;97.70;;;;;;6258268;28;20130;-84
2021/03/17 14:56:58;;;;;;;3.15;2.67;;;7.20;94.50;;;;;;6258693;28;20487;-83
2021/03/17 15:00:00;;;;;;;4.68;4.28;;;7.00;94.70;;;;;;6256414;28;20164;-82
2021/03/17 15:03:01;;;;;;;3.50;3.17;;;7.00;95.70;;;;;;6254557;28;20053;-80
2021/03/17 15:06:03;;;;;;;2.97;2.78;;;7.00;95.70;;;;;;6252600;28;20073;-81
2021/03/17 15:09:06;;;;;;;2.00;1.63;;;6.90;95.10;;;;;;6253937;28;20049;-81
2021/03/17 15:12:11;;;;;;;2.35;1.77;;;6.90;94.30;;;;;;6252951;28;20080;-82
2021/03/17 15:15:14;;;;;;;2.15;1.90;;;6.80;93.40;;;;;;6255792;28;20111;-82
2021/03/17 15:18:16;;;;;;;1.90;1.50;;;6.80;93.10;;;;;;6255907;28;20061;-83
2021/03/17 15:21:17;;;;;;;3.35;2.05;;;6.80;93.20;;;;;;6258399;28;20491;-83
2021/03/17 15:24:20;;;;;;;2.42;2.22;;;6.70;92.20;;;;;;6259608;28;20050;-83
2021/03/17 15:27:21;;;;;;;1.70;1.60;;;6.70;92.70;;;;;;6258195;28;20557;-81
2021/03/17 15:30:40;;;;;;;1.63;1.52;;;6.80;92.80;;;;;;6285665;28;20053;-83
2021/03/17 15:33:41;;;;;;;1.88;1.23;;;6.80;92.60;;;;;;6284426;28;20049;-83
2021/03/17 15:36:43;;;;;;;2.40;1.70;;;6.90;92.30;;;;;;6287032;28;20045;-82
2021/03/17 15:39:45;;;;;;;1.92;1.45;;;7.00;93.30;;;;;;6291020;28;20045;-81
2021/03/17 15:42:47;;;;;;;2.08;1.73;;;7.10;92.50;;;;;;6285554;28;20079;-82
2021/03/17 15:45:48;;;;;;;2.28;1.75;;;7.10;92.00;;;;;;6283470;28;20083;-83
2021/03/17 15:48:50;;;;;;;3.17;2.00;;;7.10;91.50;;;;;;6283974;28;20073;-82
2021/03/17 15:51:51;;;;;;;3.22;2.35;;;7.10;90.80;;;;;;6283519;28;20132;-82
2021/03/17 15:54:53;;;;;;;11.00;5.85;;;7.00;89.30;;;;;;6282413;28;20048;-82
2021/03/17 15:57:55;;;;;;;2.47;2.17;;;6.90;89.60;;;;;;6281661;28;20044;-83
2021/03/17 16:00:56;;;;;;;3.15;1.83;;;6.90;90.70;;;;;;6281904;28;20076;-82
2021/03/17 16:03:57;;;;;;;1.88;1.65;;;7.00;89.60;;;;;;6282072;28;20096;-82